sensor_id;sensor_type;location;lat;lon;timestamp;P1;durP1;ratioP1;P2;durP2;ratioP2
22191;SDS011;11261;52.456;10.850;2022-10-22T00:01:02;5.20;;;2.67;;
22191;SDS011;11261;52.456;10.850;2022-10-22T00:03:31;3.22;;;2.60;;
22191;SDS011;11261;52.456;10.850;2022-10-22T00:05:59;7.53;;;3.13;;
22191;SDS011;11261;52.456;10.850;2022-10-22T00:08:28;3.85;;;2.88;;
22191;SDS011;11261;52.456;10.850;2022-10-22T00:10:56;5.20;;;3.10;;
22191;SDS011;11261;52.456;10.850;2022-10-22T00:13:26;4.50;;;3.40;;
22191;SDS011;11261;52.456;10.850;2022-10-22T00:15:53;5.95;;;3.08;;
22191;SDS011;11261;52.456;10.850;2022-10-22T00:18:22;7.22;;;3.40;;
22191;SDS011;11261;52.456;10.850;2022-10-22T00:20:50;3.90;;;2.92;;
22191;SDS011;11261;52.456;10.850;2022-10-22T00:23:18;4.63;;;3.03;;
22191;SDS011;11261;52.456;10.850;2022-10-22T00:25:46;4.13;;;2.75;;
22191;SDS011;11261;52.456;10.850;2022-10-22T00:28:14;5.38;;;2.75;;
22191;SDS011;11261;52.456;10.850;2022-10-22T00:30:44;4.03;;;2.72;;
22191;SDS011;11261;52.456;10.850;2022-10-22T00:33:12;3.90;;;2.92;;
22191;SDS011;11261;52.456;10.850;2022-10-22T00:35:40;3.83;;;2.85;;
22191;SDS011;11261;52.456;10.850;2022-10-22T00:38:10;8.60;;;2.88;;
22191;SDS011;11261;52.456;10.850;2022-10-22T00:40:38;3.83;;;2.95;;
22191;SDS011;11261;52.456;10.850;2022-10-22T00:43:08;3.40;;;2.55;;
22191;SDS011;11261;52.456;10.850;2022-10-22T00:45:37;3.45;;;2.63;;
22191;SDS011;11261;52.456;10.850;2022-10-22T00:48:08;4.72;;;3.03;;
22191;SDS011;11261;52.456;10.850;2022-10-22T00:50:40;4.93;;;2.88;;
22191;SDS011;11261;52.456;10.850;2022-10-22T00:53:13;4.55;;;3.20;;
22191;SDS011;11261;52.456;10.850;2022-10-22T00:55:43;5.40;;;3.13;;
22191;SDS011;11261;52.456;10.850;2022-10-22T00:58:14;5.72;;;3.33;;
22191;SDS011;11261;52.456;10.850;2022-10-22T01:00:43;7.30;;;3.33;;
22191;SDS011;11261;52.456;10.850;2022-10-22T01:03:13;4.25;;;2.97;;
22191;SDS011;11261;52.456;10.850;2022-10-22T01:05:43;5.45;;;3.67;;
22191;SDS011;11261;52.456;10.850;2022-10-22T01:08:19;6.22;;;3.47;;
22191;SDS011;11261;52.456;10.850;2022-10-22T01:10:54;5.40;;;3.67;;
22191;SDS011;11261;52.456;10.850;2022-10-22T01:13:31;4.07;;;2.97;;
22191;SDS011;11261;52.456;10.850;2022-10-22T01:16:10;6.00;;;3.40;;
22191;SDS011;11261;52.456;10.850;2022-10-22T01:18:46;5.53;;;3.28;;
22191;SDS011;11261;52.456;10.850;2022-10-22T01:21:23;6.38;;;3.63;;
22191;SDS011;11261;52.456;10.850;2022-10-22T01:26:59;5.78;;;3.60;;
22191;SDS011;11261;52.456;10.850;2022-10-22T01:29:38;5.13;;;3.60;;
22191;SDS011;11261;52.456;10.850;2022-10-22T01:32:11;5.55;;;3.47;;
22191;SDS011;11261;52.456;10.850;2022-10-22T01:34:43;4.82;;;3.15;;
22191;SDS011;11261;52.456;10.850;2022-10-22T01:37:13;5.07;;;3.47;;
22191;SDS011;11261;52.456;10.850;2022-10-22T01:39:44;6.43;;;3.20;;
22191;SDS011;11261;52.456;10.850;2022-10-22T01:42:14;4.32;;;2.95;;
22191;SDS011;11261;52.456;10.850;2022-10-22T01:44:44;5.20;;;3.67;;
22191;SDS011;11261;52.456;10.850;2022-10-22T01:47:22;4.05;;;2.92;;
22191;SDS011;11261;52.456;10.850;2022-10-22T01:50:07;3.58;;;3.08;;
22191;SDS011;11261;52.456;10.850;2022-10-22T01:52:57;5.30;;;3.25;;
22191;SDS011;11261;52.456;10.850;2022-10-22T01:55:51;4.82;;;3.25;;
22191;SDS011;11261;52.456;10.850;2022-10-22T01:58:31;5.18;;;3.53;;
22191;SDS011;11261;52.456;10.850;2022-10-22T02:01:08;5.87;;;3.43;;
22191;SDS011;11261;52.456;10.850;2022-10-22T02:03:44;5.93;;;3.85;;
22191;SDS011;11261;52.456;10.850;2022-10-22T02:06:16;6.03;;;3.50;;
22191;SDS011;11261;52.456;10.850;2022-10-22T02:08:47;5.13;;;3.35;;
22191;SDS011;11261;52.456;10.850;2022-10-22T02:11:18;7.00;;;4.50;;
22191;SDS011;11261;52.456;10.850;2022-10-22T02:13:47;9.75;;;5.70;;
22191;SDS011;11261;52.456;10.850;2022-10-22T02:16:20;8.00;;;5.32;;
22191;SDS011;11261;52.456;10.850;2022-10-22T02:18:53;10.43;;;6.50;;
22191;SDS011;11261;52.456;10.850;2022-10-22T02:21:23;9.07;;;5.72;;
22191;SDS011;11261;52.456;10.850;2022-10-22T02:23:51;9.40;;;6.80;;
22191;SDS011;11261;52.456;10.850;2022-10-22T02:26:20;15.20;;;8.98;;
22191;SDS011;11261;52.456;10.850;2022-10-22T02:28:55;11.60;;;7.75;;
22191;SDS011;11261;52.456;10.850;2022-10-22T02:31:30;10.10;;;7.18;;
22191;SDS011;11261;52.456;10.850;2022-10-22T02:34:01;11.80;;;8.30;;
22191;SDS011;11261;52.456;10.850;2022-10-22T02:36:34;13.07;;;9.02;;
22191;SDS011;11261;52.456;10.850;2022-10-22T02:39:03;14.80;;;8.20;;
22191;SDS011;11261;52.456;10.850;2022-10-22T02:41:34;9.88;;;6.85;;
22191;SDS011;11261;52.456;10.850;2022-10-22T02:44:06;10.65;;;7.03;;
22191;SDS011;11261;52.456;10.850;2022-10-22T02:46:38;8.93;;;6.15;;
22191;SDS011;11261;52.456;10.850;2022-10-22T02:49:06;8.05;;;5.65;;
22191;SDS011;11261;52.456;10.850;2022-10-22T02:51:35;9.57;;;5.90;;
22191;SDS011;11261;52.456;10.850;2022-10-22T02:54:03;8.48;;;5.63;;
22191;SDS011;11261;52.456;10.850;2022-10-22T02:56:32;10.05;;;6.00;;
22191;SDS011;11261;52.456;10.850;2022-10-22T02:59:00;8.90;;;5.45;;
22191;SDS011;11261;52.456;10.850;2022-10-22T03:01:28;8.93;;;5.20;;
22191;SDS011;11261;52.456;10.850;2022-10-22T03:03:58;8.60;;;5.03;;
22191;SDS011;11261;52.456;10.850;2022-10-22T03:06:26;9.35;;;5.28;;
22191;SDS011;11261;52.456;10.850;2022-10-22T03:08:54;8.10;;;4.78;;
22191;SDS011;11261;52.456;10.850;2022-10-22T03:11:24;9.50;;;5.72;;
22191;SDS011;11261;52.456;10.850;2022-10-22T03:13:52;9.15;;;5.45;;
22191;SDS011;11261;52.456;10.850;2022-10-22T03:16:20;7.13;;;5.38;;
22191;SDS011;11261;52.456;10.850;2022-10-22T03:18:48;9.05;;;5.38;;
22191;SDS011;11261;52.456;10.850;2022-10-22T03:21:20;7.80;;;5.18;;
22191;SDS011;11261;52.456;10.850;2022-10-22T03:23:54;7.70;;;4.60;;
22191;SDS011;11261;52.456;10.850;2022-10-22T03:26:23;5.93;;;4.60;;
22191;SDS011;11261;52.456;10.850;2022-10-22T03:28:52;5.63;;;3.80;;
22191;SDS011;11261;52.456;10.850;2022-10-22T03:31:20;4.25;;;3.22;;
22191;SDS011;11261;52.456;10.850;2022-10-22T03:33:49;5.65;;;3.65;;
22191;SDS011;11261;52.456;10.850;2022-10-22T03:36:18;8.18;;;4.45;;
22191;SDS011;11261;52.456;10.850;2022-10-22T03:38:46;6.88;;;4.65;;
22191;SDS011;11261;52.456;10.850;2022-10-22T03:41:15;5.47;;;4.10;;
22191;SDS011;11261;52.456;10.850;2022-10-22T03:43:43;5.95;;;4.35;;
22191;SDS011;11261;52.456;10.850;2022-10-22T03:46:15;4.68;;;3.53;;
22191;SDS011;11261;52.456;10.850;2022-10-22T03:48:43;5.70;;;3.65;;
22191;SDS011;11261;52.456;10.850;2022-10-22T03:51:11;6.70;;;4.35;;
22191;SDS011;11261;52.456;10.850;2022-10-22T03:53:41;4.85;;;3.03;;
22191;SDS011;11261;52.456;10.850;2022-10-22T03:56:09;6.40;;;3.78;;
22191;SDS011;11261;52.456;10.850;2022-10-22T03:58:39;6.35;;;4.05;;
22191;SDS011;11261;52.456;10.850;2022-10-22T04:01:08;4.22;;;3.65;;
22191;SDS011;11261;52.456;10.850;2022-10-22T04:03:37;8.18;;;3.47;;
22191;SDS011;11261;52.456;10.850;2022-10-22T04:06:06;7.45;;;3.85;;
22191;SDS011;11261;52.456;10.850;2022-10-22T04:08:37;5.20;;;3.78;;
22191;SDS011;11261;52.456;10.850;2022-10-22T04:11:07;4.43;;;3.50;;
22191;SDS011;11261;52.456;10.850;2022-10-22T04:13:36;6.40;;;3.85;;
22191;SDS011;11261;52.456;10.850;2022-10-22T04:16:07;6.28;;;3.85;;
22191;SDS011;11261;52.456;10.850;2022-10-22T04:18:36;5.95;;;3.95;;
22191;SDS011;11261;52.456;10.850;2022-10-22T04:21:06;6.95;;;4.22;;
22191;SDS011;11261;52.456;10.850;2022-10-22T04:23:35;7.53;;;4.15;;
22191;SDS011;11261;52.456;10.850;2022-10-22T04:26:05;5.53;;;3.75;;
22191;SDS011;11261;52.456;10.850;2022-10-22T04:28:35;7.40;;;4.10;;
22191;SDS011;11261;52.456;10.850;2022-10-22T04:31:06;6.80;;;3.97;;
22191;SDS011;11261;52.456;10.850;2022-10-22T04:33:35;5.90;;;3.88;;
22191;SDS011;11261;52.456;10.850;2022-10-22T04:36:07;7.03;;;4.15;;
22191;SDS011;11261;52.456;10.850;2022-10-22T04:38:36;7.13;;;3.40;;
22191;SDS011;11261;52.456;10.850;2022-10-22T04:41:09;4.72;;;3.50;;
22191;SDS011;11261;52.456;10.850;2022-10-22T04:43:39;7.18;;;4.40;;
22191;SDS011;11261;52.456;10.850;2022-10-22T04:46:08;5.40;;;3.60;;
22191;SDS011;11261;52.456;10.850;2022-10-22T04:48:38;5.72;;;4.15;;
22191;SDS011;11261;52.456;10.850;2022-10-22T04:51:09;6.80;;;4.13;;
22191;SDS011;11261;52.456;10.850;2022-10-22T04:53:39;6.65;;;3.55;;
22191;SDS011;11261;52.456;10.850;2022-10-22T04:56:08;7.57;;;4.70;;
22191;SDS011;11261;52.456;10.850;2022-10-22T04:58:38;5.47;;;3.67;;
22191;SDS011;11261;52.456;10.850;2022-10-22T05:01:08;9.25;;;4.25;;
22191;SDS011;11261;52.456;10.850;2022-10-22T05:03:37;5.15;;;3.78;;
22191;SDS011;11261;52.456;10.850;2022-10-22T05:06:05;4.90;;;3.55;;
22191;SDS011;11261;52.456;10.850;2022-10-22T05:08:34;6.28;;;3.72;;
22191;SDS011;11261;52.456;10.850;2022-10-22T05:11:09;7.15;;;4.20;;
22191;SDS011;11261;52.456;10.850;2022-10-22T05:13:38;7.28;;;4.32;;
22191;SDS011;11261;52.456;10.850;2022-10-22T05:16:07;8.88;;;3.80;;
22191;SDS011;11261;52.456;10.850;2022-10-22T05:18:36;4.82;;;3.10;;
22191;SDS011;11261;52.456;10.850;2022-10-22T05:21:07;5.43;;;3.47;;
22191;SDS011;11261;52.456;10.850;2022-10-22T05:23:36;4.72;;;3.70;;
22191;SDS011;11261;52.456;10.850;2022-10-22T05:26:06;6.07;;;3.72;;
22191;SDS011;11261;52.456;10.850;2022-10-22T05:28:35;6.95;;;4.53;;
22191;SDS011;11261;52.456;10.850;2022-10-22T05:31:05;6.07;;;4.40;;
22191;SDS011;11261;52.456;10.850;2022-10-22T05:33:35;4.70;;;3.20;;
22191;SDS011;11261;52.456;10.850;2022-10-22T05:36:04;5.05;;;3.20;;
22191;SDS011;11261;52.456;10.850;2022-10-22T05:38:33;6.00;;;4.10;;
22191;SDS011;11261;52.456;10.850;2022-10-22T05:41:03;6.82;;;4.63;;
22191;SDS011;11261;52.456;10.850;2022-10-22T05:43:33;8.82;;;3.97;;
22191;SDS011;11261;52.456;10.850;2022-10-22T05:46:01;8.48;;;3.53;;
22191;SDS011;11261;52.456;10.850;2022-10-22T05:48:32;5.72;;;4.18;;
22191;SDS011;11261;52.456;10.850;2022-10-22T05:51:01;7.00;;;4.75;;
22191;SDS011;11261;52.456;10.850;2022-10-22T05:53:30;8.00;;;4.53;;
22191;SDS011;11261;52.456;10.850;2022-10-22T05:55:59;6.55;;;3.95;;
22191;SDS011;11261;52.456;10.850;2022-10-22T05:58:28;7.40;;;4.05;;
22191;SDS011;11261;52.456;10.850;2022-10-22T06:01:00;6.45;;;4.28;;
22191;SDS011;11261;52.456;10.850;2022-10-22T06:03:29;7.43;;;4.50;;
22191;SDS011;11261;52.456;10.850;2022-10-22T06:06:03;6.57;;;4.55;;
22191;SDS011;11261;52.456;10.850;2022-10-22T06:08:39;7.63;;;5.38;;
22191;SDS011;11261;52.456;10.850;2022-10-22T06:11:07;6.80;;;4.65;;
22191;SDS011;11261;52.456;10.850;2022-10-22T06:13:36;8.35;;;4.90;;
22191;SDS011;11261;52.456;10.850;2022-10-22T06:16:04;8.82;;;5.22;;
22191;SDS011;11261;52.456;10.850;2022-10-22T06:18:32;6.22;;;3.55;;
22191;SDS011;11261;52.456;10.850;2022-10-22T06:21:05;9.73;;;4.88;;
22191;SDS011;11261;52.456;10.850;2022-10-22T06:23:34;8.60;;;4.32;;
22191;SDS011;11261;52.456;10.850;2022-10-22T06:26:03;8.38;;;5.10;;
22191;SDS011;11261;52.456;10.850;2022-10-22T06:28:32;7.40;;;4.50;;
22191;SDS011;11261;52.456;10.850;2022-10-22T06:31:02;7.32;;;5.00;;
22191;SDS011;11261;52.456;10.850;2022-10-22T06:33:31;6.85;;;4.63;;
22191;SDS011;11261;52.456;10.850;2022-10-22T06:36:09;6.68;;;4.18;;
22191;SDS011;11261;52.456;10.850;2022-10-22T06:38:39;6.07;;;3.85;;
22191;SDS011;11261;52.456;10.850;2022-10-22T06:41:08;6.78;;;3.33;;
22191;SDS011;11261;52.456;10.850;2022-10-22T06:43:38;6.13;;;4.20;;
22191;SDS011;11261;52.456;10.850;2022-10-22T06:46:07;9.73;;;5.97;;
22191;SDS011;11261;52.456;10.850;2022-10-22T06:48:42;8.23;;;6.03;;
22191;SDS011;11261;52.456;10.850;2022-10-22T06:51:17;9.30;;;6.10;;
22191;SDS011;11261;52.456;10.850;2022-10-22T06:53:46;7.53;;;5.00;;
22191;SDS011;11261;52.456;10.850;2022-10-22T06:56:16;9.18;;;5.82;;
22191;SDS011;11261;52.456;10.850;2022-10-22T06:58:45;9.27;;;6.32;;
22191;SDS011;11261;52.456;10.850;2022-10-22T07:01:14;7.32;;;5.05;;
22191;SDS011;11261;52.456;10.850;2022-10-22T07:03:43;7.25;;;5.07;;
22191;SDS011;11261;52.456;10.850;2022-10-22T07:06:12;8.68;;;5.68;;
22191;SDS011;11261;52.456;10.850;2022-10-22T07:08:42;7.45;;;4.82;;
22191;SDS011;11261;52.456;10.850;2022-10-22T07:11:11;6.57;;;4.03;;
22191;SDS011;11261;52.456;10.850;2022-10-22T07:13:41;4.93;;;3.67;;
22191;SDS011;11261;52.456;10.850;2022-10-22T07:16:10;6.93;;;4.63;;
22191;SDS011;11261;52.456;10.850;2022-10-22T07:18:39;6.20;;;4.18;;
22191;SDS011;11261;52.456;10.850;2022-10-22T07:21:08;5.85;;;3.78;;
22191;SDS011;11261;52.456;10.850;2022-10-22T07:23:38;5.75;;;4.50;;
22191;SDS011;11261;52.456;10.850;2022-10-22T07:26:10;5.38;;;4.03;;
22191;SDS011;11261;52.456;10.850;2022-10-22T07:28:39;6.05;;;4.07;;
22191;SDS011;11261;52.456;10.850;2022-10-22T07:31:08;6.90;;;4.32;;
22191;SDS011;11261;52.456;10.850;2022-10-22T07:33:38;8.00;;;3.53;;
22191;SDS011;11261;52.456;10.850;2022-10-22T07:36:07;6.57;;;4.60;;
22191;SDS011;11261;52.456;10.850;2022-10-22T07:38:43;7.55;;;4.32;;
22191;SDS011;11261;52.456;10.850;2022-10-22T07:41:12;7.25;;;4.00;;
22191;SDS011;11261;52.456;10.850;2022-10-22T07:43:41;6.90;;;3.80;;
22191;SDS011;11261;52.456;10.850;2022-10-22T07:46:10;8.63;;;4.20;;
22191;SDS011;11261;52.456;10.850;2022-10-22T07:48:38;6.95;;;3.40;;
22191;SDS011;11261;52.456;10.850;2022-10-22T07:51:07;8.02;;;3.60;;
22191;SDS011;11261;52.456;10.850;2022-10-22T07:53:35;6.55;;;3.30;;
22191;SDS011;11261;52.456;10.850;2022-10-22T07:56:04;5.95;;;3.10;;
22191;SDS011;11261;52.456;10.850;2022-10-22T07:58:34;5.53;;;3.45;;
22191;SDS011;11261;52.456;10.850;2022-10-22T08:01:02;8.70;;;3.85;;
22191;SDS011;11261;52.456;10.850;2022-10-22T08:03:32;9.48;;;3.63;;
22191;SDS011;11261;52.456;10.850;2022-10-22T08:06:00;5.80;;;3.42;;
22191;SDS011;11261;52.456;10.850;2022-10-22T08:08:29;7.88;;;4.40;;
22191;SDS011;11261;52.456;10.850;2022-10-22T08:10:58;5.50;;;3.78;;
22191;SDS011;11261;52.456;10.850;2022-10-22T08:13:27;5.35;;;3.00;;
22191;SDS011;11261;52.456;10.850;2022-10-22T08:15:58;6.28;;;3.33;;
22191;SDS011;11261;52.456;10.850;2022-10-22T08:18:27;5.32;;;3.38;;
22191;SDS011;11261;52.456;10.850;2022-10-22T08:20:55;5.65;;;2.83;;
22191;SDS011;11261;52.456;10.850;2022-10-22T08:23:24;5.22;;;3.08;;
22191;SDS011;11261;52.456;10.850;2022-10-22T08:25:54;6.82;;;3.17;;
22191;SDS011;11261;52.456;10.850;2022-10-22T08:28:23;5.22;;;3.10;;
22191;SDS011;11261;52.456;10.850;2022-10-22T08:30:51;5.38;;;2.42;;
22191;SDS011;11261;52.456;10.850;2022-10-22T08:33:21;4.40;;;2.67;;
22191;SDS011;11261;52.456;10.850;2022-10-22T08:35:49;5.60;;;3.10;;
22191;SDS011;11261;52.456;10.850;2022-10-22T08:38:18;3.97;;;2.55;;
22191;SDS011;11261;52.456;10.850;2022-10-22T08:40:47;5.15;;;3.45;;
22191;SDS011;11261;52.456;10.850;2022-10-22T08:46:16;4.88;;;3.17;;
22191;SDS011;11261;52.456;10.850;2022-10-22T08:48:57;5.65;;;3.15;;
22191;SDS011;11261;52.456;10.850;2022-10-22T08:51:29;5.00;;;2.53;;
22191;SDS011;11261;52.456;10.850;2022-10-22T08:54:04;5.75;;;2.97;;
22191;SDS011;11261;52.456;10.850;2022-10-22T08:56:41;4.75;;;2.90;;
22191;SDS011;11261;52.456;10.850;2022-10-22T08:59:13;2.90;;;2.30;;
22191;SDS011;11261;52.456;10.850;2022-10-22T09:01:48;5.35;;;2.75;;
22191;SDS011;11261;52.456;10.850;2022-10-22T09:04:20;4.07;;;2.20;;
22191;SDS011;11261;52.456;10.850;2022-10-22T09:06:56;6.68;;;2.40;;
22191;SDS011;11261;52.456;10.850;2022-10-22T09:09:26;2.67;;;1.90;;
22191;SDS011;11261;52.456;10.850;2022-10-22T09:12:02;3.15;;;1.85;;
22191;SDS011;11261;52.456;10.850;2022-10-22T09:14:30;2.92;;;1.98;;
22191;SDS011;11261;52.456;10.850;2022-10-22T09:17:03;4.28;;;1.40;;
22191;SDS011;11261;52.456;10.850;2022-10-22T09:19:43;3.20;;;1.70;;
22191;SDS011;11261;52.456;10.850;2022-10-22T09:22:23;3.88;;;1.80;;
22191;SDS011;11261;52.456;10.850;2022-10-22T09:25:09;2.83;;;1.83;;
22191;SDS011;11261;52.456;10.850;2022-10-22T09:27:46;2.95;;;1.80;;
22191;SDS011;11261;52.456;10.850;2022-10-22T09:30:16;4.57;;;1.90;;
22191;SDS011;11261;52.456;10.850;2022-10-22T09:32:46;2.80;;;1.50;;
22191;SDS011;11261;52.456;10.850;2022-10-22T09:35:20;3.00;;;2.00;;
22191;SDS011;11261;52.456;10.850;2022-10-22T09:37:51;3.75;;;1.75;;
22191;SDS011;11261;52.456;10.850;2022-10-22T09:40:21;7.38;;;2.58;;
22191;SDS011;11261;52.456;10.850;2022-10-22T09:42:50;6.55;;;2.05;;
22191;SDS011;11261;52.456;10.850;2022-10-22T09:45:19;1.70;;;1.60;;
22191;SDS011;11261;52.456;10.850;2022-10-22T09:47:49;4.15;;;1.67;;
22191;SDS011;11261;52.456;10.850;2022-10-22T09:50:35;4.13;;;1.70;;
22191;SDS011;11261;52.456;10.850;2022-10-22T09:53:11;4.18;;;1.48;;
22191;SDS011;11261;52.456;10.850;2022-10-22T09:55:41;2.90;;;1.63;;
22191;SDS011;11261;52.456;10.850;2022-10-22T09:58:10;6.25;;;1.52;;
22191;SDS011;11261;52.456;10.850;2022-10-22T10:00:40;2.65;;;1.63;;
22191;SDS011;11261;52.456;10.850;2022-10-22T10:03:14;1.73;;;1.25;;
22191;SDS011;11261;52.456;10.850;2022-10-22T10:05:47;5.10;;;2.00;;
22191;SDS011;11261;52.456;10.850;2022-10-22T10:08:18;2.45;;;1.40;;
22191;SDS011;11261;52.456;10.850;2022-10-22T10:10:46;3.08;;;1.70;;
22191;SDS011;11261;52.456;10.850;2022-10-22T10:13:24;4.55;;;1.92;;
22191;SDS011;11261;52.456;10.850;2022-10-22T10:16:01;3.92;;;2.00;;
22191;SDS011;11261;52.456;10.850;2022-10-22T10:18:38;1.73;;;1.40;;
22191;SDS011;11261;52.456;10.850;2022-10-22T10:21:20;3.40;;;1.60;;
22191;SDS011;11261;52.456;10.850;2022-10-22T10:24:00;3.97;;;1.80;;
22191;SDS011;11261;52.456;10.850;2022-10-22T10:26:36;5.72;;;1.65;;
22191;SDS011;11261;52.456;10.850;2022-10-22T10:29:13;4.63;;;1.70;;
22191;SDS011;11261;52.456;10.850;2022-10-22T10:31:53;3.70;;;1.80;;
22191;SDS011;11261;52.456;10.850;2022-10-22T10:34:36;3.97;;;1.65;;
22191;SDS011;11261;52.456;10.850;2022-10-22T10:37:15;5.40;;;1.80;;
22191;SDS011;11261;52.456;10.850;2022-10-22T10:39:54;2.83;;;2.00;;
22191;SDS011;11261;52.456;10.850;2022-10-22T10:42:32;4.25;;;1.73;;
22191;SDS011;11261;52.456;10.850;2022-10-22T10:45:07;4.72;;;1.60;;
22191;SDS011;11261;52.456;10.850;2022-10-22T10:47:48;4.05;;;1.83;;
22191;SDS011;11261;52.456;10.850;2022-10-22T10:50:46;4.10;;;1.95;;
22191;SDS011;11261;52.456;10.850;2022-10-22T10:53:26;7.75;;;2.05;;
22191;SDS011;11261;52.456;10.850;2022-10-22T10:56:08;4.63;;;1.95;;
22191;SDS011;11261;52.456;10.850;2022-10-22T10:58:52;7.43;;;1.55;;
22191;SDS011;11261;52.456;10.850;2022-10-22T11:01:28;6.35;;;1.90;;
22191;SDS011;11261;52.456;10.850;2022-10-22T11:04:18;3.30;;;1.50;;
22191;SDS011;11261;52.456;10.850;2022-10-22T11:06:57;5.50;;;1.60;;
22191;SDS011;11261;52.456;10.850;2022-10-22T11:09:44;4.80;;;1.70;;
22191;SDS011;11261;52.456;10.850;2022-10-22T11:12:18;3.58;;;1.55;;
22191;SDS011;11261;52.456;10.850;2022-10-22T11:14:53;7.00;;;1.75;;
22191;SDS011;11261;52.456;10.850;2022-10-22T11:17:25;4.50;;;1.52;;
22191;SDS011;11261;52.456;10.850;2022-10-22T11:20:00;3.67;;;1.63;;
22191;SDS011;11261;52.456;10.850;2022-10-22T11:22:32;4.75;;;1.20;;
22191;SDS011;11261;52.456;10.850;2022-10-22T11:25:22;3.60;;;1.08;;
22191;SDS011;11261;52.456;10.850;2022-10-22T11:27:55;1.60;;;0.90;;
22191;SDS011;11261;52.456;10.850;2022-10-22T11:30:34;2.75;;;1.30;;
22191;SDS011;11261;52.456;10.850;2022-10-22T11:33:05;2.10;;;1.10;;
22191;SDS011;11261;52.456;10.850;2022-10-22T11:35:37;3.55;;;1.35;;
22191;SDS011;11261;52.456;10.850;2022-10-22T11:38:09;1.95;;;1.10;;
22191;SDS011;11261;52.456;10.850;2022-10-22T11:40:44;5.90;;;1.67;;
22191;SDS011;11261;52.456;10.850;2022-10-22T11:43:25;5.18;;;1.23;;
22191;SDS011;11261;52.456;10.850;2022-10-22T11:46:01;10.30;;;2.33;;
22191;SDS011;11261;52.456;10.850;2022-10-22T11:48:36;2.65;;;1.35;;
22191;SDS011;11261;52.456;10.850;2022-10-22T11:54:01;2.42;;;1.20;;
22191;SDS011;11261;52.456;10.850;2022-10-22T11:56:52;2.45;;;1.20;;
22191;SDS011;11261;52.456;10.850;2022-10-22T11:59:40;4.53;;;1.30;;
22191;SDS011;11261;52.456;10.850;2022-10-22T12:02:21;2.58;;;1.40;;
22191;SDS011;11261;52.456;10.850;2022-10-22T12:07:49;2.85;;;1.48;;
22191;SDS011;11261;52.456;10.850;2022-10-22T12:10:24;2.38;;;1.20;;
22191;SDS011;11261;52.456;10.850;2022-10-22T12:12:56;4.05;;;1.75;;
22191;SDS011;11261;52.456;10.850;2022-10-22T12:15:28;2.03;;;1.33;;
22191;SDS011;11261;52.456;10.850;2022-10-22T12:17:58;4.65;;;1.30;;
22191;SDS011;11261;52.456;10.850;2022-10-22T12:20:28;4.72;;;1.17;;
22191;SDS011;11261;52.456;10.850;2022-10-22T12:22:56;4.40;;;1.25;;
22191;SDS011;11261;52.456;10.850;2022-10-22T12:25:28;5.28;;;1.40;;
22191;SDS011;11261;52.456;10.850;2022-10-22T12:28:02;4.10;;;1.15;;
22191;SDS011;11261;52.456;10.850;2022-10-22T12:30:31;4.85;;;1.50;;
22191;SDS011;11261;52.456;10.850;2022-10-22T12:33:01;3.63;;;1.40;;
22191;SDS011;11261;52.456;10.850;2022-10-22T12:35:32;1.58;;;1.02;;
22191;SDS011;11261;52.456;10.850;2022-10-22T12:38:03;6.28;;;1.33;;
22191;SDS011;11261;52.456;10.850;2022-10-22T12:40:38;3.45;;;1.50;;
22191;SDS011;11261;52.456;10.850;2022-10-22T12:43:15;5.53;;;1.30;;
22191;SDS011;11261;52.456;10.850;2022-10-22T12:45:45;2.85;;;1.55;;
22191;SDS011;11261;52.456;10.850;2022-10-22T12:48:15;3.10;;;1.63;;
22191;SDS011;11261;52.456;10.850;2022-10-22T12:50:46;2.88;;;1.35;;
22191;SDS011;11261;52.456;10.850;2022-10-22T12:53:17;2.13;;;1.15;;
22191;SDS011;11261;52.456;10.850;2022-10-22T12:55:49;4.15;;;1.52;;
22191;SDS011;11261;52.456;10.850;2022-10-22T12:58:25;5.18;;;1.80;;
22191;SDS011;11261;52.456;10.850;2022-10-22T13:00:56;1.95;;;1.20;;
22191;SDS011;11261;52.456;10.850;2022-10-22T13:03:28;2.95;;;1.80;;
22191;SDS011;11261;52.456;10.850;2022-10-22T13:06:10;3.38;;;1.70;;
22191;SDS011;11261;52.456;10.850;2022-10-22T13:08:39;2.28;;;1.42;;
22191;SDS011;11261;52.456;10.850;2022-10-22T13:11:08;2.65;;;1.50;;
22191;SDS011;11261;52.456;10.850;2022-10-22T13:13:42;4.80;;;1.60;;
22191;SDS011;11261;52.456;10.850;2022-10-22T13:16:11;3.33;;;1.80;;
22191;SDS011;11261;52.456;10.850;2022-10-22T13:18:45;4.10;;;1.70;;
22191;SDS011;11261;52.456;10.850;2022-10-22T13:24:17;2.33;;;1.55;;
22191;SDS011;11261;52.456;10.850;2022-10-22T13:26:47;3.53;;;1.10;;
22191;SDS011;11261;52.456;10.850;2022-10-22T13:29:20;1.92;;;1.33;;
22191;SDS011;11261;52.456;10.850;2022-10-22T13:31:50;2.28;;;1.33;;
22191;SDS011;11261;52.456;10.850;2022-10-22T13:34:19;2.60;;;1.50;;
22191;SDS011;11261;52.456;10.850;2022-10-22T13:36:49;2.63;;;1.55;;
22191;SDS011;11261;52.456;10.850;2022-10-22T13:39:18;3.65;;;1.38;;
22191;SDS011;11261;52.456;10.850;2022-10-22T13:41:47;1.73;;;1.20;;
22191;SDS011;11261;52.456;10.850;2022-10-22T13:44:16;4.22;;;1.45;;
22191;SDS011;11261;52.456;10.850;2022-10-22T13:46:46;1.95;;;1.52;;
22191;SDS011;11261;52.456;10.850;2022-10-22T13:49:15;4.90;;;1.75;;
22191;SDS011;11261;52.456;10.850;2022-10-22T13:51:46;1.98;;;1.30;;
22191;SDS011;11261;52.456;10.850;2022-10-22T13:54:16;3.03;;;1.23;;
22191;SDS011;11261;52.456;10.850;2022-10-22T13:56:48;4.78;;;1.50;;
22191;SDS011;11261;52.456;10.850;2022-10-22T13:59:16;5.03;;;1.45;;
22191;SDS011;11261;52.456;10.850;2022-10-22T14:01:50;1.95;;;1.33;;
22191;SDS011;11261;52.456;10.850;2022-10-22T14:04:20;1.08;;;1.00;;
22191;SDS011;11261;52.456;10.850;2022-10-22T14:06:48;3.10;;;1.42;;
22191;SDS011;11261;52.456;10.850;2022-10-22T14:09:16;2.38;;;0.93;;
22191;SDS011;11261;52.456;10.850;2022-10-22T14:11:45;3.95;;;1.25;;
22191;SDS011;11261;52.456;10.850;2022-10-22T14:14:13;3.67;;;1.20;;
22191;SDS011;11261;52.456;10.850;2022-10-22T14:16:42;2.75;;;1.40;;
22191;SDS011;11261;52.456;10.850;2022-10-22T14:19:13;4.47;;;1.38;;
22191;SDS011;11261;52.456;10.850;2022-10-22T14:21:43;5.82;;;1.50;;
22191;SDS011;11261;52.456;10.850;2022-10-22T14:24:11;2.72;;;1.10;;
22191;SDS011;11261;52.456;10.850;2022-10-22T14:26:39;2.25;;;1.20;;
22191;SDS011;11261;52.456;10.850;2022-10-22T14:29:07;2.58;;;1.20;;
22191;SDS011;11261;52.456;10.850;2022-10-22T14:31:37;1.85;;;1.20;;
22191;SDS011;11261;52.456;10.850;2022-10-22T14:34:08;3.38;;;1.60;;
22191;SDS011;11261;52.456;10.850;2022-10-22T14:36:38;3.03;;;1.08;;
22191;SDS011;11261;52.456;10.850;2022-10-22T14:39:09;2.20;;;1.10;;
22191;SDS011;11261;52.456;10.850;2022-10-22T14:41:37;2.20;;;1.25;;
22191;SDS011;11261;52.456;10.850;2022-10-22T14:44:06;2.45;;;1.63;;
22191;SDS011;11261;52.456;10.850;2022-10-22T14:46:38;2.45;;;1.48;;
22191;SDS011;11261;52.456;10.850;2022-10-22T14:49:08;4.07;;;1.30;;
22191;SDS011;11261;52.456;10.850;2022-10-22T14:51:36;3.17;;;1.55;;
22191;SDS011;11261;52.456;10.850;2022-10-22T14:54:05;1.77;;;1.23;;
22191;SDS011;11261;52.456;10.850;2022-10-22T14:56:33;2.13;;;1.15;;
22191;SDS011;11261;52.456;10.850;2022-10-22T14:59:07;2.63;;;1.33;;
22191;SDS011;11261;52.456;10.850;2022-10-22T15:01:35;4.00;;;1.15;;
22191;SDS011;11261;52.456;10.850;2022-10-22T15:04:04;3.30;;;1.30;;
22191;SDS011;11261;52.456;10.850;2022-10-22T15:06:32;3.55;;;1.35;;
22191;SDS011;11261;52.456;10.850;2022-10-22T15:09:00;2.42;;;1.60;;
22191;SDS011;11261;52.456;10.850;2022-10-22T15:11:30;2.75;;;1.48;;
22191;SDS011;11261;52.456;10.850;2022-10-22T15:13:58;2.70;;;1.45;;